Hauptseite
METAR-TAF:

METAR-TAF

Flughäfen :

Flughafen Öskemen

Öskemen, Kasachstan

Breite: 50-02-10N, Länge: 082-29-39E, Höhe: 286 m

Beobachtung

Neuester Wetterbericht von vor 31 Minuten, um 22:30 UTC
Wind 2 kt aus unterschiedlichen Richtungen
Temperatur 13°C
Luftfeuchtigkeit 88%
Luftdruck 1016 hPa
Sichtweite 10 km oder mehr
Aufgelockert bewölkt in der Höhe von 9300 ft

METAR: UASK 202230Z VRB01MPS 9999 SCT093 13/11 Q1016 NOSIG RMK QFE737/0983

Zeit: 05:01 (23:01 UTC)

Prognose

Neuester Wetterbericht von vor 2 Stunden und 59 Minuten, um 20:02 UTC
Gültige Prognose vom 20 um 21 UTC bis 21 um 06 UTC
Wind 6 kt aus Ost/Südost
Sichtweite 10 km oder mehr
Durchbrochene Bewölkung in der Höhe von 8000 ft
Zeitweise
vom 20 um 21 UTC bis 21 um 03 UTC
Wind 6 kt aus Süd

TAF: UASK 202002Z 2021/2106 12003MPS 9999 BKN080 TEMPO 2021/2103 18003MPS

Wetterbeobachtungen und Prognosen von mehr als 4000 Flughäfen (METAR und TAF Bericht).

Die verfügbaren Stationen werden durch gelbe und rote Markierungen auf der Karte dargestellt.

Führen Sie die Maus auf sie, um den Namen der Station zu sehen.

Darauf klicken, um die Beobachtung von Wetterbeobachtungen und Prognosen zu sehen.

Um die Karte zu ändern : klicken Sie auf den grünen Tasten mit einem schwarzen Kreuz Zum Vergrößern, auf den grünen Button mit einem Gedankenstrich zu verkleinern, oder auf die grünen Pfeile für benachbarte Karten.


METAR-TAF: